sensor_id;sensor_type;location;lat;lon;timestamp;pressure;altitude;pressure_sealevel;temperature;humidity
77537;BME280;67783;51.656;16.106;2023-05-13T00:01:28;102206.65;;;14.63;45.34
77537;BME280;67783;51.656;16.106;2023-05-13T00:04:30;102198.64;;;14.62;43.86
77537;BME280;67783;51.656;16.106;2023-05-13T00:07:32;102207.07;;;14.57;44.88
77537;BME280;67783;51.656;16.106;2023-05-13T00:10:34;102207.16;;;14.56;44.19
77537;BME280;67783;51.656;16.106;2023-05-13T00:13:36;102202.27;;;14.48;44.82
77537;BME280;67783;51.656;16.106;2023-05-13T00:16:37;102206.79;;;14.48;44.49
77537;BME280;67783;51.656;16.106;2023-05-13T00:19:39;102204.59;;;14.40;44.88
77537;BME280;67783;51.656;16.106;2023-05-13T00:22:44;102202.19;;;14.36;47.37
77537;BME280;67783;51.656;16.106;2023-05-13T00:25:45;102199.55;;;14.34;45.01
77537;BME280;67783;51.656;16.106;2023-05-13T00:28:47;102200.84;;;14.28;45.92
77537;BME280;67783;51.656;16.106;2023-05-13T00:31:49;102204.58;;;14.26;45.15
77537;BME280;67783;51.656;16.106;2023-05-13T00:34:51;102203.13;;;14.20;45.66
77537;BME280;67783;51.656;16.106;2023-05-13T00:37:53;102199.77;;;14.17;45.33
77537;BME280;67783;51.656;16.106;2023-05-13T00:40:55;102210.95;;;14.11;45.70
77537;BME280;67783;51.656;16.106;2023-05-13T00:44:00;102214.91;;;14.05;47.81
77537;BME280;67783;51.656;16.106;2023-05-13T00:47:02;102218.66;;;14.03;45.71
77537;BME280;67783;51.656;16.106;2023-05-13T00:50:05;102213.66;;;13.97;46.52
77537;BME280;67783;51.656;16.106;2023-05-13T00:53:07;102210.09;;;13.96;45.80
77537;BME280;67783;51.656;16.106;2023-05-13T00:56:09;102210.48;;;13.90;46.26
77537;BME280;67783;51.656;16.106;2023-05-13T00:59:21;102211.64;;;13.86;48.48
77537;BME280;67783;51.656;16.106;2023-05-13T01:02:36;102213.66;;;13.82;46.19
77537;BME280;67783;51.656;16.106;2023-05-13T01:05:52;102205.95;;;13.76;46.58
77537;BME280;67783;51.656;16.106;2023-05-13T01:12:25;102210.87;;;13.70;46.41
77537;BME280;67783;51.656;16.106;2023-05-13T01:15:24;102216.53;;;13.65;46.77
77537;BME280;67783;51.656;16.106;2023-05-13T01:21:39;102218.05;;;13.55;46.69
77537;BME280;67783;51.656;16.106;2023-05-13T01:24:41;102228.15;;;13.52;47.09
77537;BME280;67783;51.656;16.106;2023-05-13T01:27:48;102227.55;;;13.47;49.49
77537;BME280;67783;51.656;16.106;2023-05-13T01:30:50;102225.93;;;13.44;47.05
77537;BME280;67783;51.656;16.106;2023-05-13T01:33:52;102227.07;;;13.40;47.82
77537;BME280;67783;51.656;16.106;2023-05-13T01:36:54;102234.36;;;13.38;47.06
77537;BME280;67783;51.656;16.106;2023-05-13T01:39:56;102236.65;;;13.30;47.54
77537;BME280;67783;51.656;16.106;2023-05-13T01:43:08;102242.42;;;13.24;49.83
77537;BME280;67783;51.656;16.106;2023-05-13T01:46:13;102207.59;;;13.05;47.44
77537;BME280;67783;51.656;16.106;2023-05-13T01:49:15;102231.23;;;13.16;48.05
77537;BME280;67783;51.656;16.106;2023-05-13T01:52:16;102236.70;;;13.14;47.44
77537;BME280;67783;51.656;16.106;2023-05-13T01:55:18;102225.41;;;13.08;47.88
77537;BME280;67783;51.656;16.106;2023-05-13T01:58:29;102198.01;;;12.85;50.05
77537;BME280;67783;51.656;16.106;2023-05-13T02:01:30;102233.95;;;13.00;47.74
77537;BME280;67783;51.656;16.106;2023-05-13T02:04:32;102240.54;;;12.94;48.72
77537;BME280;67783;51.656;16.106;2023-05-13T02:07:33;102237.23;;;12.89;47.80
77537;BME280;67783;51.656;16.106;2023-05-13T02:10:35;102238.56;;;12.82;48.29
77537;BME280;67783;51.656;16.106;2023-05-13T02:13:36;102241.44;;;12.79;47.87
77537;BME280;67783;51.656;16.106;2023-05-13T02:16:38;102245.41;;;12.72;48.24
77537;BME280;67783;51.656;16.106;2023-05-13T02:19:43;102252.03;;;12.67;50.51
77537;BME280;67783;51.656;16.106;2023-05-13T02:22:45;102244.98;;;12.64;48.26
77537;BME280;67783;51.656;16.106;2023-05-13T02:25:47;102238.41;;;12.54;49.18
77537;BME280;67783;51.656;16.106;2023-05-13T02:28:49;102251.24;;;12.49;48.44
77537;BME280;67783;51.656;16.106;2023-05-13T02:31:50;102244.63;;;12.39;49.18
77537;BME280;67783;51.656;16.106;2023-05-13T02:34:52;102242.12;;;12.36;48.56
77537;BME280;67783;51.656;16.106;2023-05-13T02:37:54;102231.73;;;12.30;49.08
77537;BME280;67783;51.656;16.106;2023-05-13T02:40:59;102241.76;;;12.26;50.59
77537;BME280;67783;51.656;16.106;2023-05-13T02:44:01;102239.17;;;12.25;48.93
77537;BME280;67783;51.656;16.106;2023-05-13T02:47:04;102242.80;;;12.24;49.71
77537;BME280;67783;51.656;16.106;2023-05-13T02:50:07;102248.10;;;12.25;48.96
77537;BME280;67783;51.656;16.106;2023-05-13T02:53:10;102257.12;;;12.24;49.62
77537;BME280;67783;51.656;16.106;2023-05-13T02:56:19;102250.25;;;12.19;51.75
77537;BME280;67783;51.656;16.106;2023-05-13T02:59:21;102251.98;;;12.20;49.37
77537;BME280;67783;51.656;16.106;2023-05-13T03:02:22;102252.48;;;12.11;50.34
77537;BME280;67783;51.656;16.106;2023-05-13T03:05:24;102239.15;;;12.09;49.57
77537;BME280;67783;51.656;16.106;2023-05-13T03:08:26;102251.09;;;12.03;49.84
77537;BME280;67783;51.656;16.106;2023-05-13T03:11:27;102244.91;;;12.01;49.75
77537;BME280;67783;51.656;16.106;2023-05-13T03:14:28;102238.95;;;11.96;49.80
77537;BME280;67783;51.656;16.106;2023-05-13T03:17:34;102245.27;;;11.95;51.56
77537;BME280;67783;51.656;16.106;2023-05-13T03:20:36;102243.45;;;11.96;49.73
77537;BME280;67783;51.656;16.106;2023-05-13T03:23:37;102241.78;;;11.93;50.47
77537;BME280;67783;51.656;16.106;2023-05-13T03:26:39;102248.72;;;11.97;49.89
77537;BME280;67783;51.656;16.106;2023-05-13T03:29:41;102242.75;;;11.92;50.22
77537;BME280;67783;51.656;16.106;2023-05-13T03:32:42;102243.45;;;11.96;49.72
77537;BME280;67783;51.656;16.106;2023-05-13T03:35:44;102247.01;;;11.96;50.14
77537;BME280;67783;51.656;16.106;2023-05-13T03:38:49;102243.34;;;11.97;51.80
77537;BME280;67783;51.656;16.106;2023-05-13T03:41:51;102244.91;;;12.01;49.84
77537;BME280;67783;51.656;16.106;2023-05-13T03:44:53;102246.73;;;12.01;50.47
77537;BME280;67783;51.656;16.106;2023-05-13T03:47:56;102262.62;;;12.06;49.79
77537;BME280;67783;51.656;16.106;2023-05-13T03:50:58;102263.16;;;12.12;50.04
77537;BME280;67783;51.656;16.106;2023-05-13T03:54:09;102262.74;;;12.20;52.14
77537;BME280;67783;51.656;16.106;2023-05-13T03:57:11;102265.70;;;12.31;50.17
77537;BME280;67783;51.656;16.106;2023-05-13T04:00:14;102261.63;;;12.39;50.78
77537;BME280;67783;51.656;16.106;2023-05-13T04:03:16;102270.07;;;12.49;50.10
77537;BME280;67783;51.656;16.106;2023-05-13T04:06:19;102266.51;;;12.64;50.33
77537;BME280;67783;51.656;16.106;2023-05-13T04:09:30;102272.66;;;12.98;51.13
77537;BME280;67783;51.656;16.106;2023-05-13T04:12:32;102272.05;;;13.24;49.46
77537;BME280;67783;51.656;16.106;2023-05-13T04:15:33;102276.44;;;13.40;49.39
77537;BME280;67783;51.656;16.106;2023-05-13T04:18:35;102273.95;;;13.52;48.63
77537;BME280;67783;51.656;16.106;2023-05-13T04:21:36;102278.48;;;13.51;48.92
77537;BME280;67783;51.656;16.106;2023-05-13T04:24:38;102274.04;;;13.50;48.65
77537;BME280;67783;51.656;16.106;2023-05-13T04:27:39;102284.19;;;13.61;48.82
77537;BME280;67783;51.656;16.106;2023-05-13T04:30:45;102281.46;;;13.91;48.95
77537;BME280;67783;51.656;16.106;2023-05-13T04:33:46;102275.38;;;14.29;47.72
77537;BME280;67783;51.656;16.106;2023-05-13T04:36:48;102287.03;;;14.72;47.04
77537;BME280;67783;51.656;16.106;2023-05-13T04:39:50;102287.96;;;15.12;46.37
77537;BME280;67783;51.656;16.106;2023-05-13T04:42:51;102288.16;;;15.36;45.86
77537;BME280;67783;51.656;16.106;2023-05-13T04:45:54;102289.75;;;15.65;45.25
77537;BME280;67783;51.656;16.106;2023-05-13T04:48:56;102287.20;;;15.77;44.80
77537;BME280;67783;51.656;16.106;2023-05-13T04:52:02;102296.50;;;15.85;44.36
77537;BME280;67783;51.656;16.106;2023-05-13T04:55:04;102302.58;;;16.01;44.49
77537;BME280;67783;51.656;16.106;2023-05-13T04:58:06;102307.67;;;16.06;43.92
77537;BME280;67783;51.656;16.106;2023-05-13T05:01:07;102269.25;;;16.01;44.12
77537;BME280;67783;51.656;16.106;2023-05-13T05:04:10;102293.68;;;16.25;43.79
77537;BME280;67783;51.656;16.106;2023-05-13T05:07:22;102301.94;;;16.23;42.69
77537;BME280;67783;51.656;16.106;2023-05-13T05:10:23;102299.55;;;16.19;43.47
77537;BME280;67783;51.656;16.106;2023-05-13T05:13:25;102301.26;;;16.20;43.80
77537;BME280;67783;51.656;16.106;2023-05-13T05:16:26;102306.66;;;16.32;43.78
77537;BME280;67783;51.656;16.106;2023-05-13T05:19:30;102309.91;;;16.37;43.55
77537;BME280;67783;51.656;16.106;2023-05-13T05:22:42;102304.09;;;16.31;43.12
77537;BME280;67783;51.656;16.106;2023-05-13T05:25:44;102301.70;;;16.26;43.74
77537;BME280;67783;51.656;16.106;2023-05-13T05:28:45;102306.66;;;16.20;43.67
77537;BME280;67783;51.656;16.106;2023-05-13T05:31:47;102310.15;;;16.09;43.57
77537;BME280;67783;51.656;16.106;2023-05-13T05:34:49;102304.18;;;15.91;43.95
77537;BME280;67783;51.656;16.106;2023-05-13T05:37:50;102306.14;;;15.89;44.01
77537;BME280;67783;51.656;16.106;2023-05-13T05:40:52;102314.35;;;15.88;44.36
77537;BME280;67783;51.656;16.106;2023-05-13T05:43:57;102311.22;;;15.81;44.33
77537;BME280;67783;51.656;16.106;2023-05-13T05:46:59;102311.22;;;15.81;44.55
77537;BME280;67783;51.656;16.106;2023-05-13T05:50:00;102306.87;;;15.79;44.78
77537;BME280;67783;51.656;16.106;2023-05-13T05:53:03;102311.97;;;15.83;44.69
77537;BME280;67783;51.656;16.106;2023-05-13T05:56:07;102306.66;;;15.94;44.72
77537;BME280;67783;51.656;16.106;2023-05-13T05:59:18;102314.05;;;16.05;44.75
77537;BME280;67783;51.656;16.106;2023-05-13T06:02:20;102306.90;;;16.04;44.39
77537;BME280;67783;51.656;16.106;2023-05-13T06:05:22;102308.94;;;15.88;44.71
77537;BME280;67783;51.656;16.106;2023-05-13T06:08:24;102303.98;;;15.82;44.73
77537;BME280;67783;51.656;16.106;2023-05-13T06:11:30;102300.16;;;15.72;44.95
77537;BME280;67783;51.656;16.106;2023-05-13T06:14:39;102305.98;;;15.65;45.20
77537;BME280;67783;51.656;16.106;2023-05-13T06:17:41;102303.74;;;15.72;45.05
77537;BME280;67783;51.656;16.106;2023-05-13T06:20:42;102303.74;;;15.72;45.49
77537;BME280;67783;51.656;16.106;2023-05-13T06:23:44;102308.51;;;15.81;45.40
77537;BME280;67783;51.656;16.106;2023-05-13T06:26:46;102306.68;;;15.82;45.13
77537;BME280;67783;51.656;16.106;2023-05-13T06:29:48;102295.41;;;15.88;44.94
77537;BME280;67783;51.656;16.106;2023-05-13T06:32:49;102293.04;;;15.96;44.66
77537;BME280;67783;51.656;16.106;2023-05-13T06:35:54;102299.96;;;16.00;43.99
77537;BME280;67783;51.656;16.106;2023-05-13T06:38:56;102304.73;;;16.09;44.31
77537;BME280;67783;51.656;16.106;2023-05-13T06:41:57;102296.30;;;16.13;44.26
77537;BME280;67783;51.656;16.106;2023-05-13T06:44:59;102295.20;;;16.16;44.15
77537;BME280;67783;51.656;16.106;2023-05-13T06:48:00;102305.48;;;16.11;44.72
77537;BME280;67783;51.656;16.106;2023-05-13T06:51:02;102307.12;;;16.26;44.54
77537;BME280;67783;51.656;16.106;2023-05-13T06:54:05;102303.63;;;16.37;44.54
77537;BME280;67783;51.656;16.106;2023-05-13T06:57:10;102302.57;;;16.39;44.76
77537;BME280;67783;51.656;16.106;2023-05-13T07:00:16;102302.41;;;16.53;44.42
77537;BME280;67783;51.656;16.106;2023-05-13T07:03:18;102305.13;;;16.66;44.32
77537;BME280;67783;51.656;16.106;2023-05-13T07:06:20;102302.63;;;16.76;44.17
77537;BME280;67783;51.656;16.106;2023-05-13T07:09:21;102296.98;;;16.79;43.88
77537;BME280;67783;51.656;16.106;2023-05-13T07:12:31;102292.38;;;16.92;43.90
77537;BME280;67783;51.656;16.106;2023-05-13T07:15:32;102292.97;;;17.08;43.53
77537;BME280;67783;51.656;16.106;2023-05-13T07:18:34;102287.84;;;17.16;43.25
77537;BME280;67783;51.656;16.106;2023-05-13T07:21:36;102283.46;;;17.26;42.58
77537;BME280;67783;51.656;16.106;2023-05-13T07:24:38;102284.83;;;17.32;42.05
77537;BME280;67783;51.656;16.106;2023-05-13T07:27:51;102282.88;;;17.34;41.28
77537;BME280;67783;51.656;16.106;2023-05-13T07:30:53;102281.66;;;17.38;41.71
77537;BME280;67783;51.656;16.106;2023-05-13T07:33:54;102281.66;;;17.38;40.69
77537;BME280;67783;51.656;16.106;2023-05-13T07:36:57;102280.63;;;17.51;40.56
77537;BME280;67783;51.656;16.106;2023-05-13T07:39:58;102272.96;;;17.57;40.36
77537;BME280;67783;51.656;16.106;2023-05-13T07:43:00;102278.96;;;17.73;41.00
77537;BME280;67783;51.656;16.106;2023-05-13T07:46:01;102277.63;;;17.89;40.68
77537;BME280;67783;51.656;16.106;2023-05-13T07:49:06;102277.27;;;17.83;39.12
77537;BME280;67783;51.656;16.106;2023-05-13T07:52:09;102285.42;;;17.94;40.48
77537;BME280;67783;51.656;16.106;2023-05-13T07:55:10;102285.67;;;17.91;39.66
77537;BME280;67783;51.656;16.106;2023-05-13T07:58:12;102283.32;;;17.97;39.56
77537;BME280;67783;51.656;16.106;2023-05-13T08:01:13;102286.44;;;18.04;39.96
77537;BME280;67783;51.656;16.106;2023-05-13T08:04:15;102282.49;;;18.19;39.88
77537;BME280;67783;51.656;16.106;2023-05-13T08:07:18;102278.30;;;18.26;39.04
77537;BME280;67783;51.656;16.106;2023-05-13T08:10:22;102290.16;;;18.25;38.40
77537;BME280;67783;51.656;16.106;2023-05-13T08:13:24;102284.61;;;18.38;39.50
77537;BME280;67783;51.656;16.106;2023-05-13T08:16:25;102287.19;;;18.39;38.84
77537;BME280;67783;51.656;16.106;2023-05-13T08:19:27;102281.77;;;18.51;39.36
77537;BME280;67783;51.656;16.106;2023-05-13T08:22:28;102275.12;;;18.66;39.16
77537;BME280;67783;51.656;16.106;2023-05-13T08:25:30;102284.71;;;18.81;38.89
77537;BME280;67783;51.656;16.106;2023-05-13T08:28:32;102290.00;;;18.94;38.21
77537;BME280;67783;51.656;16.106;2023-05-13T08:31:37;102290.86;;;18.94;37.35
77537;BME280;67783;51.656;16.106;2023-05-13T08:34:39;102285.16;;;19.08;38.71
77537;BME280;67783;51.656;16.106;2023-05-13T08:37:40;102295.01;;;19.20;38.03
77537;BME280;67783;51.656;16.106;2023-05-13T08:40:42;102266.20;;;19.18;37.86
77537;BME280;67783;51.656;16.106;2023-05-13T08:43:46;102281.95;;;19.35;37.70
77537;BME280;67783;51.656;16.106;2023-05-13T08:47:03;102286.52;;;19.34;37.50
77537;BME280;67783;51.656;16.106;2023-05-13T08:50:08;102288.50;;;19.44;38.00
77537;BME280;67783;51.656;16.106;2023-05-13T08:53:11;102281.03;;;19.57;37.80
77537;BME280;67783;51.656;16.106;2023-05-13T08:56:13;102290.59;;;19.72;38.02
77537;BME280;67783;51.656;16.106;2023-05-13T08:59:15;102284.62;;;19.78;37.87
77537;BME280;67783;51.656;16.106;2023-05-13T09:02:19;102281.03;;;19.77;36.33
77537;BME280;67783;51.656;16.106;2023-05-13T09:05:21;102292.40;;;19.83;37.39
77537;BME280;67783;51.656;16.106;2023-05-13T09:08:24;102291.38;;;19.83;37.56
77537;BME280;67783;51.656;16.106;2023-05-13T09:11:27;102290.18;;;19.97;37.63
77537;BME280;67783;51.656;16.106;2023-05-13T09:14:30;102295.10;;;20.03;37.90
77537;BME280;67783;51.656;16.106;2023-05-13T09:17:46;102285.12;;;20.13;37.07
77537;BME280;67783;51.656;16.106;2023-05-13T09:20:48;102284.90;;;20.26;37.48
77537;BME280;67783;51.656;16.106;2023-05-13T09:24:00;102286.38;;;20.30;37.69
77537;BME280;67783;51.656;16.106;2023-05-13T09:27:06;102287.13;;;20.32;36.83
77537;BME280;67783;51.656;16.106;2023-05-13T09:30:09;102289.84;;;20.32;37.39
77537;BME280;67783;51.656;16.106;2023-05-13T09:33:16;102284.52;;;20.31;37.67
77537;BME280;67783;51.656;16.106;2023-05-13T09:36:19;102280.12;;;20.39;37.61
77537;BME280;67783;51.656;16.106;2023-05-13T09:39:21;102284.70;;;20.39;37.92
77537;BME280;67783;51.656;16.106;2023-05-13T09:42:27;102283.89;;;20.48;37.44
77537;BME280;67783;51.656;16.106;2023-05-13T09:45:29;102289.39;;;20.67;37.40
77537;BME280;67783;51.656;16.106;2023-05-13T09:48:32;102283.98;;;20.77;37.59
77537;BME280;67783;51.656;16.106;2023-05-13T09:51:34;102281.99;;;20.88;37.54
77537;BME280;67783;51.656;16.106;2023-05-13T09:54:39;102282.86;;;20.89;37.23
77537;BME280;67783;51.656;16.106;2023-05-13T09:57:47;102269.09;;;21.00;36.35
77537;BME280;67783;51.656;16.106;2023-05-13T10:00:50;102270.59;;;21.13;37.29
77537;BME280;67783;51.656;16.106;2023-05-13T10:03:53;102280.95;;;21.20;37.18
77537;BME280;67783;51.656;16.106;2023-05-13T10:06:57;102282.66;;;21.30;36.79
77537;BME280;67783;51.656;16.106;2023-05-13T10:10:03;102277.22;;;21.40;36.44
77537;BME280;67783;51.656;16.106;2023-05-13T10:13:09;102274.93;;;21.45;35.63
77537;BME280;67783;51.656;16.106;2023-05-13T10:16:13;102280.09;;;21.57;36.72
77537;BME280;67783;51.656;16.106;2023-05-13T10:19:15;102284.82;;;21.65;36.19
77537;BME280;67783;51.656;16.106;2023-05-13T10:25:32;102254.23;;;21.52;35.50
77537;BME280;67783;51.656;16.106;2023-05-13T10:28:37;102278.20;;;21.68;34.91
77537;BME280;67783;51.656;16.106;2023-05-13T10:31:39;102287.09;;;21.79;35.85
77537;BME280;67783;51.656;16.106;2023-05-13T10:34:42;102290.38;;;21.83;35.24
77537;BME280;67783;51.656;16.106;2023-05-13T10:44:18;102292.13;;;22.03;35.11
77537;BME280;67783;51.656;16.106;2023-05-13T10:47:20;102288.48;;;22.12;35.51
77537;BME280;67783;51.656;16.106;2023-05-13T10:50:26;102285.06;;;22.10;35.21
77537;BME280;67783;51.656;16.106;2023-05-13T10:53:41;102288.92;;;22.07;34.85
77537;BME280;67783;51.656;16.106;2023-05-13T10:56:48;102293.08;;;22.12;35.66
77537;BME280;67783;51.656;16.106;2023-05-13T11:00:09;102293.51;;;22.17;35.96
77537;BME280;67783;51.656;16.106;2023-05-13T11:06:28;102285.41;;;22.34;35.04
77537;BME280;67783;51.656;16.106;2023-05-13T11:09:29;102286.79;;;22.48;35.02
77537;BME280;67783;51.656;16.106;2023-05-13T11:12:33;102277.66;;;22.57;33.70
77537;BME280;67783;51.656;16.106;2023-05-13T11:15:43;102280.12;;;22.60;34.94
77537;BME280;67783;51.656;16.106;2023-05-13T11:18:46;102295.02;;;22.38;35.27
77537;BME280;67783;51.656;16.106;2023-05-13T11:22:08;102293.51;;;22.17;35.17
77537;BME280;67783;51.656;16.106;2023-05-13T11:25:11;102272.30;;;21.82;35.88
77537;BME280;67783;51.656;16.106;2023-05-13T11:28:15;102289.25;;;21.85;35.78
77537;BME280;67783;51.656;16.106;2023-05-13T11:31:27;102288.81;;;21.90;34.96
77537;BME280;67783;51.656;16.106;2023-05-13T11:34:30;102284.50;;;22.06;35.46
77537;BME280;67783;51.656;16.106;2023-05-13T11:37:32;102277.54;;;22.22;34.86
77537;BME280;67783;51.656;16.106;2023-05-13T11:40:35;102286.82;;;22.38;34.62
77537;BME280;67783;51.656;16.106;2023-05-13T11:43:39;102277.17;;;22.44;33.98
77537;BME280;67783;51.656;16.106;2023-05-13T11:46:50;102282.13;;;22.58;33.08
77537;BME280;67783;51.656;16.106;2023-05-13T11:49:52;102278.70;;;22.83;34.24
77537;BME280;67783;51.656;16.106;2023-05-13T11:52:56;102276.34;;;22.98;33.79
77537;BME280;67783;51.656;16.106;2023-05-13T11:59:13;102271.03;;;23.14;33.12
77537;BME280;67783;51.656;16.106;2023-05-13T12:02:25;102273.38;;;23.27;31.55
77537;BME280;67783;51.656;16.106;2023-05-13T12:05:28;102273.56;;;23.43;32.80
77537;BME280;67783;51.656;16.106;2023-05-13T12:08:30;102270.72;;;23.35;31.76
77537;BME280;67783;51.656;16.106;2023-05-13T12:11:32;102272.34;;;23.28;32.25
77537;BME280;67783;51.656;16.106;2023-05-13T12:14:34;102282.84;;;23.15;31.48
77537;BME280;67783;51.656;16.106;2023-05-13T12:17:39;102276.88;;;23.02;29.49
77537;BME280;67783;51.656;16.106;2023-05-13T12:20:41;102285.37;;;22.98;30.37
77537;BME280;67783;51.656;16.106;2023-05-13T12:23:42;102278.39;;;22.86;30.32
77537;BME280;67783;51.656;16.106;2023-05-13T12:26:44;102274.88;;;22.76;30.34
77537;BME280;67783;51.656;16.106;2023-05-13T12:29:46;102278.48;;;22.77;31.36
77537;BME280;67783;51.656;16.106;2023-05-13T12:32:48;102269.59;;;22.92;31.27
77537;BME280;67783;51.656;16.106;2023-05-13T12:35:52;102273.27;;;23.01;30.24
77537;BME280;67783;51.656;16.106;2023-05-13T12:38:59;102270.09;;;23.06;28.65
77537;BME280;67783;51.656;16.106;2023-05-13T12:42:01;102276.66;;;23.13;30.19
77537;BME280;67783;51.656;16.106;2023-05-13T12:45:03;102272.81;;;23.06;29.00
77537;BME280;67783;51.656;16.106;2023-05-13T12:48:05;102280.48;;;23.02;29.28
77537;BME280;67783;51.656;16.106;2023-05-13T12:51:07;102285.59;;;22.87;28.82
77537;BME280;67783;51.656;16.106;2023-05-13T12:54:14;102278.93;;;22.72;27.73
77537;BME280;67783;51.656;16.106;2023-05-13T12:57:16;102287.99;;;22.73;28.78
77537;BME280;67783;51.656;16.106;2023-05-13T13:00:20;102288.24;;;22.79;28.66
77537;BME280;67783;51.656;16.106;2023-05-13T13:03:22;102286.92;;;22.83;29.49
77537;BME280;67783;51.656;16.106;2023-05-13T13:06:23;102280.40;;;22.94;29.34
77537;BME280;67783;51.656;16.106;2023-05-13T13:09:35;102281.23;;;22.94;28.00
77537;BME280;67783;51.656;16.106;2023-05-13T13:12:36;102278.89;;;22.99;28.94
77537;BME280;67783;51.656;16.106;2023-05-13T13:15:38;102273.97;;;23.03;28.94
77537;BME280;67783;51.656;16.106;2023-05-13T13:18:40;102281.95;;;22.96;28.56
77537;BME280;67783;51.656;16.106;2023-05-13T13:21:42;102272.38;;;22.83;28.00
77537;BME280;67783;51.656;16.106;2023-05-13T13:24:43;102281.99;;;22.87;28.65
77537;BME280;67783;51.656;16.106;2023-05-13T13:27:45;102274.98;;;22.84;28.60
77537;BME280;67783;51.656;16.106;2023-05-13T13:30:50;102283.40;;;22.73;27.29
77537;BME280;67783;51.656;16.106;2023-05-13T13:33:51;102275.06;;;22.65;28.42
77537;BME280;67783;51.656;16.106;2023-05-13T13:36:54;102275.66;;;22.59;28.37
77537;BME280;67783;51.656;16.106;2023-05-13T13:39:55;102281.22;;;22.67;29.13
77537;BME280;67783;51.656;16.106;2023-05-13T13:42:57;102274.65;;;22.60;28.51
77537;BME280;67783;51.656;16.106;2023-05-13T13:45:58;102271.74;;;22.62;29.22
77537;BME280;67783;51.656;16.106;2023-05-13T13:49:00;102265.17;;;22.54;28.80
77537;BME280;67783;51.656;16.106;2023-05-13T13:52:05;102275.14;;;22.46;28.00
77537;BME280;67783;51.656;16.106;2023-05-13T13:55:07;102276.13;;;22.45;28.87
77537;BME280;67783;51.656;16.106;2023-05-13T13:58:11;102270.18;;;22.32;29.11
77537;BME280;67783;51.656;16.106;2023-05-13T14:01:12;102266.41;;;22.33;29.33
77537;BME280;67783;51.656;16.106;2023-05-13T14:04:16;102261.26;;;22.30;29.27
77537;BME280;67783;51.656;16.106;2023-05-13T14:07:27;102265.72;;;22.31;29.00
77537;BME280;67783;51.656;16.106;2023-05-13T14:10:29;102257.21;;;22.34;29.58
77537;BME280;67783;51.656;16.106;2023-05-13T14:13:30;102258.08;;;22.34;29.43
77537;BME280;67783;51.656;16.106;2023-05-13T14:16:32;102265.06;;;22.46;29.68
77537;BME280;67783;51.656;16.106;2023-05-13T14:19:33;102266.38;;;22.42;28.99
77537;BME280;67783;51.656;16.106;2023-05-13T14:22:46;102261.78;;;22.43;28.33
77537;BME280;67783;51.656;16.106;2023-05-13T14:25:47;102251.55;;;22.45;29.38
77537;BME280;67783;51.656;16.106;2023-05-13T14:28:49;102258.74;;;22.46;29.44
77537;BME280;67783;51.656;16.106;2023-05-13T14:31:50;102258.52;;;22.57;29.71
77537;BME280;67783;51.656;16.106;2023-05-13T14:34:52;102263.99;;;22.57;29.01
77537;BME280;67783;51.656;16.106;2023-05-13T14:40:03;102258.20;;;22.70;29.37
77537;BME280;67783;51.656;16.106;2023-05-13T14:43:05;102251.30;;;22.66;28.70
77537;BME280;67783;51.656;16.106;2023-05-13T14:46:07;102253.33;;;22.64;28.49
77537;BME280;67783;51.656;16.106;2023-05-13T14:49:08;102261.26;;;22.57;28.95
77537;BME280;67783;51.656;16.106;2023-05-13T14:52:10;102255.09;;;22.55;29.48
77537;BME280;67783;51.656;16.106;2023-05-13T14:55:11;102259.84;;;22.53;29.44
77537;BME280;67783;51.656;16.106;2023-05-13T14:58:17;102252.13;;;22.48;29.17
77537;BME280;67783;51.656;16.106;2023-05-13T15:01:19;102249.95;;;22.52;29.65
77537;BME280;67783;51.656;16.106;2023-05-13T15:04:21;102258.29;;;22.50;29.67
77537;BME280;67783;51.656;16.106;2023-05-13T15:07:23;102245.03;;;22.55;30.00
77537;BME280;67783;51.656;16.106;2023-05-13T15:10:24;102238.39;;;22.58;30.04
77537;BME280;67783;51.656;16.106;2023-05-13T15:13:26;102241.39;;;22.65;29.81
77537;BME280;67783;51.656;16.106;2023-05-13T15:16:29;102238.23;;;22.69;30.11
77537;BME280;67783;51.656;16.106;2023-05-13T15:19:34;102235.06;;;22.64;28.97
77537;BME280;67783;51.656;16.106;2023-05-13T15:22:36;102231.73;;;22.70;29.85
77537;BME280;67783;51.656;16.106;2023-05-13T15:25:37;102236.38;;;22.60;29.42
77537;BME280;67783;51.656;16.106;2023-05-13T15:28:38;102232.61;;;22.61;29.18
77537;BME280;67783;51.656;16.106;2023-05-13T15:31:40;102241.44;;;22.55;28.63
77537;BME280;67783;51.656;16.106;2023-05-13T15:34:42;102242.13;;;22.57;28.78
77537;BME280;67783;51.656;16.106;2023-05-13T15:37:44;102230.49;;;22.55;28.92
77537;BME280;67783;51.656;16.106;2023-05-13T15:40:49;102227.76;;;22.55;28.65
77537;BME280;67783;51.656;16.106;2023-05-13T15:43:52;102236.97;;;22.54;28.97
77537;BME280;67783;51.656;16.106;2023-05-13T15:46:54;102231.05;;;22.59;28.77
77537;BME280;67783;51.656;16.106;2023-05-13T15:49:55;102234.05;;;22.65;28.84
77537;BME280;67783;51.656;16.106;2023-05-13T15:52:57;102222.80;;;22.68;28.70
77537;BME280;67783;51.656;16.106;2023-05-13T15:55:58;102223.24;;;22.73;28.67
77537;BME280;67783;51.656;16.106;2023-05-13T15:59:00;102220.88;;;22.78;28.66
77537;BME280;67783;51.656;16.106;2023-05-13T16:02:05;102215.92;;;22.64;27.11
77537;BME280;67783;51.656;16.106;2023-05-13T16:05:07;102217.65;;;22.65;28.50
77537;BME280;67783;51.656;16.106;2023-05-13T16:08:08;102211.32;;;22.65;28.52
77537;BME280;67783;51.656;16.106;2023-05-13T16:11:10;102194.55;;;22.50;28.26